createdAt,value
2022-10-09T00:00:49.867Z,71.30
2022-10-09T00:03:18.316Z,71.30
2022-10-09T00:05:46.636Z,71.20
2022-10-09T00:08:14.668Z,71.20
2022-10-09T00:10:43.145Z,71.20
2022-10-09T00:13:11.209Z,71.30
2022-10-09T00:15:44.682Z,71.30
2022-10-09T00:18:13.463Z,71.40
2022-10-09T00:20:42.556Z,71.30
2022-10-09T00:23:10.750Z,71.20
2022-10-09T00:25:39.451Z,71.30
2022-10-09T00:28:07.536Z,71.10
2022-10-09T00:30:35.704Z,71.20
2022-10-09T00:33:18.769Z,71.00
2022-10-09T00:35:49.947Z,71.10
2022-10-09T00:38:18.102Z,71.10
2022-10-09T00:40:46.147Z,71.20
2022-10-09T00:43:16.360Z,70.80
2022-10-09T00:45:46.050Z,70.80
2022-10-09T00:48:15.511Z,70.90
2022-10-09T00:50:44.371Z,71.00
2022-10-09T00:53:19.337Z,71.00
2022-10-09T00:55:47.396Z,70.90
2022-10-09T00:58:15.445Z,70.80
2022-10-09T01:00:43.501Z,71.00
2022-10-09T01:03:11.568Z,70.70
2022-10-09T01:05:44.759Z,70.80
2022-10-09T01:08:15.661Z,70.90
2022-10-09T01:10:47.669Z,70.70
2022-10-09T01:13:18.218Z,70.70
2022-10-09T01:15:48.964Z,70.50
2022-10-09T01:18:21.659Z,70.60
2022-10-09T01:20:52.534Z,70.60
2022-10-09T01:23:34.988Z,70.80
2022-10-09T01:26:10.442Z,70.60
2022-10-09T01:28:40.113Z,70.60
2022-10-09T01:31:08.297Z,70.60
2022-10-09T01:33:36.375Z,70.60
2022-10-09T01:36:04.407Z,70.50
2022-10-09T01:38:32.527Z,70.60
2022-10-09T01:41:00.574Z,70.50
2022-10-09T01:43:28.625Z,70.40
2022-10-09T01:46:22.323Z,70.60
2022-10-09T01:48:54.623Z,70.50
2022-10-09T01:51:23.593Z,70.30
2022-10-09T01:53:51.668Z,70.50
2022-10-09T01:56:20.963Z,70.40
2022-10-09T01:59:06.344Z,70.60
2022-10-09T02:01:36.496Z,70.40
2022-10-09T02:04:06.007Z,70.40
2022-10-09T02:06:34.122Z,70.30
2022-10-09T02:09:02.253Z,70.40
2022-10-09T02:11:31.949Z,70.30
2022-10-09T02:13:59.990Z,70.30
2022-10-09T02:16:37.005Z,70.30
2022-10-09T02:19:09.759Z,70.20
2022-10-09T02:21:42.978Z,70.20
2022-10-09T02:24:15.267Z,70.20
2022-10-09T02:26:43.388Z,70.30
2022-10-09T02:29:11.704Z,70.20
2022-10-09T02:31:40.241Z,70.30
2022-10-09T02:34:11.741Z,70.20
2022-10-09T02:36:42.285Z,70.10
2022-10-09T02:39:10.452Z,70.10
2022-10-09T02:41:38.537Z,70.10
2022-10-09T02:44:06.711Z,69.90
2022-10-09T02:46:34.999Z,70.10
2022-10-09T02:49:03.280Z,70.10
2022-10-09T02:51:32.686Z,70.00
2022-10-09T02:54:00.783Z,70.00
2022-10-09T02:56:29.068Z,70.00
2022-10-09T02:58:57.141Z,70.00
2022-10-09T03:01:28.295Z,69.90
2022-10-09T03:03:56.434Z,69.90
2022-10-09T03:06:26.285Z,69.80
2022-10-09T03:08:55.969Z,69.80
2022-10-09T03:11:25.242Z,69.80
2022-10-09T03:14:02.004Z,69.80
2022-10-09T03:16:30.348Z,69.80
2022-10-09T03:19:00.159Z,69.70
2022-10-09T03:21:28.783Z,69.70
2022-10-09T03:23:58.209Z,69.80
2022-10-09T03:26:27.253Z,69.70
2022-10-09T03:28:55.781Z,69.70
2022-10-09T03:31:50.409Z,69.60
2022-10-09T03:34:12.981Z,69.70
2022-10-09T03:36:41.030Z,69.70
2022-10-09T03:39:10.733Z,69.60
2022-10-09T03:41:38.942Z,69.50
2022-10-09T03:44:07.160Z,69.60
2022-10-09T03:46:35.331Z,69.60
2022-10-09T03:49:03.502Z,69.50
2022-10-09T03:51:31.676Z,69.60
2022-10-09T03:53:59.700Z,69.60
2022-10-09T03:56:29.109Z,69.50
2022-10-09T03:58:57.234Z,69.60
2022-10-09T04:01:25.433Z,69.50
2022-10-09T04:03:53.613Z,69.50
2022-10-09T04:06:21.729Z,69.50
2022-10-09T04:08:49.859Z,69.30
2022-10-09T04:11:17.910Z,69.40
2022-10-09T04:13:47.357Z,69.40
2022-10-09T04:16:15.457Z,69.60
2022-10-09T04:18:44.033Z,69.40
2022-10-09T04:21:13.052Z,69.40
2022-10-09T04:23:41.142Z,69.40
2022-10-09T04:26:09.255Z,69.40
2022-10-09T04:28:37.437Z,69.40
2022-10-09T04:31:07.051Z,69.40
2022-10-09T04:33:35.205Z,69.40
2022-10-09T04:36:03.326Z,69.40
2022-10-09T04:38:32.521Z,69.40
2022-10-09T04:41:01.383Z,69.40
2022-10-09T04:43:29.601Z,69.40
2022-10-09T04:45:57.900Z,69.40
2022-10-09T04:48:27.371Z,69.40
2022-10-09T04:50:55.392Z,69.40
2022-10-09T04:53:23.430Z,69.40
2022-10-09T04:55:51.778Z,69.20
2022-10-09T04:58:19.839Z,69.40
2022-10-09T05:00:47.935Z,69.20
2022-10-09T05:03:16.037Z,69.20
2022-10-09T05:05:45.715Z,69.20
2022-10-09T05:08:13.770Z,69.40
2022-10-09T05:10:41.912Z,69.20
2022-10-09T05:13:10.039Z,69.20
2022-10-09T05:15:38.805Z,69.20
2022-10-09T05:18:07.020Z,69.40
2022-10-09T05:20:35.165Z,69.20
2022-10-09T05:23:04.556Z,69.20
2022-10-09T05:25:33.036Z,69.20
2022-10-09T05:28:01.133Z,69.00
2022-10-09T05:30:29.220Z,69.00
2022-10-09T05:33:00.368Z,69.00
2022-10-09T05:35:28.469Z,69.20
2022-10-09T05:37:56.512Z,69.20
2022-10-09T05:40:29.257Z,69.00
2022-10-09T05:42:57.482Z,69.20
2022-10-09T05:45:25.541Z,69.20
2022-10-09T05:47:53.597Z,69.20
2022-10-09T05:50:21.706Z,69.00
2022-10-09T05:52:50.110Z,69.00
2022-10-09T05:55:18.433Z,69.00
2022-10-09T05:57:47.932Z,69.00
2022-10-09T06:00:16.305Z,69.00
2022-10-09T06:02:44.475Z,69.00
2022-10-09T06:05:15.622Z,68.90
2022-10-09T06:07:43.708Z,69.00
2022-10-09T06:10:11.834Z,69.00
2022-10-09T06:12:39.869Z,69.20
2022-10-09T06:15:10.088Z,69.20
2022-10-09T06:17:38.139Z,69.00
2022-10-09T06:20:07.038Z,68.90
2022-10-09T06:22:35.035Z,69.00
2022-10-09T06:25:03.081Z,68.90
2022-10-09T06:27:31.169Z,68.90
2022-10-09T06:29:59.571Z,69.00
2022-10-09T06:32:29.015Z,68.90
2022-10-09T06:34:57.480Z,68.90
2022-10-09T06:37:25.621Z,69.00
2022-10-09T06:40:07.679Z,68.90
2022-10-09T06:42:35.775Z,68.80
2022-10-09T06:45:03.865Z,68.90
2022-10-09T06:47:33.288Z,69.00
2022-10-09T06:50:01.337Z,69.00
2022-10-09T06:52:29.377Z,69.00
2022-10-09T06:54:57.442Z,69.00
2022-10-09T06:57:25.508Z,69.20
2022-10-09T06:59:53.564Z,68.80
2022-10-09T07:02:21.694Z,68.90
2022-10-09T07:04:51.411Z,69.00
2022-10-09T07:07:19.525Z,69.00
2022-10-09T07:09:47.674Z,68.90
2022-10-09T07:12:15.734Z,68.90
2022-10-09T07:14:43.867Z,69.00
2022-10-09T07:17:11.893Z,69.00
2022-10-09T07:19:40.087Z,68.90
2022-10-09T07:22:11.574Z,69.00
2022-10-09T07:24:39.667Z,68.90
2022-10-09T07:27:07.882Z,69.00
2022-10-09T07:29:41.913Z,69.00
2022-10-09T07:32:10.702Z,68.90
2022-10-09T07:34:38.981Z,69.00
2022-10-09T07:37:07.042Z,68.90
2022-10-09T07:39:36.642Z,69.00
2022-10-09T07:42:05.061Z,69.00
2022-10-09T07:44:33.249Z,69.00
2022-10-09T07:47:01.350Z,69.00
2022-10-09T07:49:32.198Z,69.00
2022-10-09T07:52:00.293Z,69.00
2022-10-09T07:54:28.374Z,69.20
2022-10-09T07:56:57.945Z,69.20
2022-10-09T07:59:26.023Z,69.20
2022-10-09T08:01:54.237Z,69.20
2022-10-09T08:04:22.665Z,69.20
2022-10-09T08:06:50.778Z,69.40
2022-10-09T08:09:21.925Z,69.40
2022-10-09T08:11:49.967Z,69.20
2022-10-09T08:14:19.768Z,69.20
2022-10-09T08:16:48.180Z,69.40
2022-10-09T08:19:16.356Z,69.40
2022-10-09T08:21:44.430Z,69.60
2022-10-09T08:24:13.167Z,69.40
2022-10-09T08:26:41.299Z,69.60
2022-10-09T08:29:10.913Z,69.40
2022-10-09T08:31:40.434Z,69.40
2022-10-09T08:34:08.587Z,69.40
2022-10-09T08:36:36.652Z,69.40
2022-10-09T08:39:04.939Z,69.40
2022-10-09T08:41:48.389Z,69.40
2022-10-09T08:44:19.188Z,69.50
2022-10-09T08:47:06.824Z,69.50
2022-10-09T08:49:39.879Z,69.60
2022-10-09T08:52:16.404Z,69.60
2022-10-09T08:54:44.473Z,69.70
2022-10-09T08:57:13.990Z,69.70
2022-10-09T08:59:42.257Z,69.70
2022-10-09T09:05:21.254Z,69.80
2022-10-09T09:07:52.785Z,69.80
2022-10-09T09:10:23.321Z,69.90
2022-10-09T09:12:53.895Z,69.90
2022-10-09T09:15:31.290Z,69.90
2022-10-09T09:18:05.318Z,70.00
2022-10-09T09:20:36.988Z,70.00
2022-10-09T09:23:05.150Z,70.10
2022-10-09T09:25:35.010Z,70.10
2022-10-09T09:28:12.527Z,70.10
2022-10-09T09:30:43.959Z,70.20
2022-10-09T09:33:16.874Z,70.20
2022-10-09T09:35:48.212Z,70.30
2022-10-09T09:38:16.488Z,70.30
2022-10-09T09:40:47.214Z,70.40
2022-10-09T09:43:18.149Z,70.50
2022-10-09T09:45:46.526Z,70.50
2022-10-09T09:48:16.995Z,70.50
2022-10-09T09:50:52.938Z,70.50
2022-10-09T09:53:29.279Z,70.50
2022-10-09T09:55:57.432Z,70.50
2022-10-09T09:58:26.166Z,70.50
2022-10-09T10:00:57.428Z,70.60
2022-10-09T10:03:26.929Z,70.70
2022-10-09T10:05:55.173Z,70.60
2022-10-09T10:08:24.615Z,70.70
2022-10-09T10:10:53.993Z,70.70
2022-10-09T10:13:23.119Z,70.70
2022-10-09T10:15:53.324Z,70.70
2022-10-09T10:18:21.582Z,70.70
2022-10-09T10:20:51.953Z,70.80
2022-10-09T10:23:24.665Z,70.80
2022-10-09T10:25:53.256Z,70.80
2022-10-09T10:28:33.192Z,70.80
2022-10-09T10:31:01.276Z,70.80
2022-10-09T10:33:31.052Z,70.80
2022-10-09T10:36:28.831Z,70.90
2022-10-09T10:39:01.277Z,70.90
2022-10-09T10:41:30.415Z,70.90
2022-10-09T10:44:00.173Z,70.90
2022-10-09T10:46:30.686Z,70.90
2022-10-09T10:48:59.066Z,71.00
2022-10-09T10:51:37.125Z,71.00
2022-10-09T10:54:11.727Z,71.00
2022-10-09T10:56:41.427Z,71.00
2022-10-09T10:59:21.449Z,71.00
2022-10-09T11:01:53.710Z,71.00
2022-10-09T11:04:38.061Z,71.00
2022-10-09T11:07:10.651Z,71.10
2022-10-09T11:09:43.415Z,71.10
2022-10-09T11:12:19.838Z,71.10
2022-10-09T11:15:03.107Z,71.10
2022-10-09T11:17:32.960Z,71.10
2022-10-09T11:20:33.573Z,71.20
2022-10-09T11:23:06.718Z,71.10
2022-10-09T11:25:39.170Z,71.20
2022-10-09T11:28:10.690Z,71.20
2022-10-09T11:30:43.961Z,71.20
2022-10-09T11:33:18.091Z,71.20
2022-10-09T11:35:48.073Z,71.20
2022-10-09T11:38:24.595Z,71.20
2022-10-09T11:40:54.422Z,71.20
2022-10-09T11:43:41.496Z,71.20
2022-10-09T11:46:11.327Z,71.20
2022-10-09T11:48:43.664Z,71.20
2022-10-09T11:51:13.886Z,71.20
2022-10-09T11:53:41.936Z,71.30
2022-10-09T11:56:23.124Z,71.30
2022-10-09T11:58:58.640Z,71.30
2022-10-09T12:01:32.750Z,71.30
2022-10-09T12:04:02.077Z,71.30
2022-10-09T12:06:30.104Z,71.30
2022-10-09T12:08:58.999Z,71.30
2022-10-09T12:11:28.427Z,71.30
2022-10-09T12:13:57.162Z,71.30
2022-10-09T12:16:33.839Z,71.30
2022-10-09T12:19:02.868Z,71.30
2022-10-09T12:21:33.862Z,71.30
2022-10-09T12:24:01.920Z,71.30
2022-10-09T12:26:31.434Z,71.30
2022-10-09T12:29:01.229Z,71.30
2022-10-09T12:31:30.569Z,71.30
2022-10-09T12:34:00.473Z,71.30
2022-10-09T12:36:29.372Z,71.30
2022-10-09T12:39:14.061Z,71.40
2022-10-09T12:41:44.351Z,71.40
2022-10-09T12:44:19.082Z,71.40
2022-10-09T12:46:47.251Z,71.40
2022-10-09T12:49:20.547Z,71.40
2022-10-09T12:51:53.868Z,71.50
2022-10-09T12:54:25.145Z,71.50
2022-10-09T12:56:54.797Z,71.40
2022-10-09T12:59:22.851Z,71.40
2022-10-09T13:01:51.229Z,71.40
2022-10-09T13:04:26.502Z,71.40
2022-10-09T13:06:54.592Z,71.50
2022-10-09T13:09:24.183Z,71.50
2022-10-09T13:11:55.635Z,71.50
2022-10-09T13:14:25.942Z,71.50
2022-10-09T13:16:54.149Z,71.50
2022-10-09T13:19:24.927Z,71.50
2022-10-09T13:22:13.929Z,71.50
2022-10-09T13:24:41.973Z,71.50
2022-10-09T13:27:12.039Z,71.50
2022-10-09T13:29:40.201Z,71.50
2022-10-09T13:32:13.000Z,71.60
2022-10-09T13:34:41.086Z,71.50
2022-10-09T13:37:09.266Z,71.50
2022-10-09T13:39:37.380Z,71.60
2022-10-09T13:42:05.528Z,71.60
2022-10-09T13:44:34.948Z,71.60
2022-10-09T13:47:03.397Z,71.60
2022-10-09T13:49:31.483Z,71.60
2022-10-09T13:51:59.532Z,71.60
2022-10-09T13:54:39.389Z,71.60
2022-10-09T13:57:07.521Z,71.60
2022-10-09T13:59:38.411Z,71.80
2022-10-09T14:02:06.480Z,71.80
2022-10-09T14:04:34.551Z,71.70
2022-10-09T14:07:02.612Z,71.90
2022-10-09T14:09:31.252Z,71.90
2022-10-09T14:11:59.328Z,71.80
2022-10-09T14:14:27.422Z,71.80
2022-10-09T14:16:56.840Z,71.80
2022-10-09T14:19:27.695Z,71.80
2022-10-09T14:21:56.009Z,71.80
2022-10-09T14:24:24.065Z,71.80
2022-10-09T14:26:52.113Z,71.90
2022-10-09T14:29:28.975Z,71.90
2022-10-09T14:32:00.930Z,71.90
2022-10-09T14:34:28.981Z,71.80
2022-10-09T14:37:23.713Z,71.90
2022-10-09T14:39:58.191Z,72.00
2022-10-09T14:42:26.354Z,71.90
2022-10-09T14:44:54.712Z,72.00
2022-10-09T14:47:24.136Z,72.00
2022-10-09T14:49:52.324Z,72.00
2022-10-09T14:52:20.392Z,71.90
2022-10-09T14:54:48.442Z,71.90
2022-10-09T14:57:16.524Z,72.00
2022-10-09T14:59:44.586Z,71.90
2022-10-09T15:02:13.585Z,72.00
2022-10-09T15:04:43.047Z,72.00
2022-10-09T15:07:11.161Z,72.00
2022-10-09T15:09:39.369Z,71.90
2022-10-09T15:12:10.131Z,72.00
2022-10-09T15:14:38.232Z,72.10
2022-10-09T15:17:06.322Z,72.00
2022-10-09T15:19:34.563Z,72.00
2022-10-09T15:22:04.077Z,72.00
2022-10-09T15:24:32.144Z,72.00
2022-10-09T15:27:04.609Z,71.90
2022-10-09T15:29:32.677Z,71.90
2022-10-09T15:32:02.087Z,71.90
2022-10-09T15:34:30.865Z,71.90
2022-10-09T15:36:58.971Z,72.00
2022-10-09T15:39:28.501Z,72.00
2022-10-09T15:41:56.572Z,72.00
2022-10-09T15:44:24.605Z,72.00
2022-10-09T15:46:55.945Z,71.90
2022-10-09T15:49:24.022Z,72.00
2022-10-09T15:51:52.161Z,72.00
2022-10-09T15:54:28.974Z,72.00
2022-10-09T15:56:58.374Z,71.90
2022-10-09T15:59:26.634Z,71.90
2022-10-09T16:01:54.776Z,72.00
2022-10-09T16:04:22.833Z,72.00
2022-10-09T16:06:50.879Z,72.00
2022-10-09T16:09:18.950Z,72.00
2022-10-09T16:11:46.996Z,72.00
2022-10-09T16:14:16.404Z,72.00
2022-10-09T16:16:44.773Z,72.00
2022-10-09T16:19:12.848Z,72.00
2022-10-09T16:21:40.879Z,72.00
2022-10-09T16:24:09.322Z,72.00
2022-10-09T16:26:37.364Z,72.00
2022-10-09T16:29:05.492Z,71.90
2022-10-09T16:31:36.043Z,71.90
2022-10-09T16:34:04.141Z,71.90
2022-10-09T16:36:35.065Z,71.90
2022-10-09T16:39:03.227Z,71.90
2022-10-09T16:41:31.337Z,71.90
2022-10-09T16:44:00.339Z,71.90
2022-10-09T16:46:29.324Z,71.90
2022-10-09T16:48:59.017Z,71.80
2022-10-09T16:51:27.842Z,71.80
2022-10-09T16:53:59.991Z,71.80
2022-10-09T16:56:29.662Z,71.80
2022-10-09T16:58:58.477Z,71.70
2022-10-09T17:01:26.759Z,71.70
2022-10-09T17:03:55.181Z,71.70
2022-10-09T17:06:24.628Z,71.60
2022-10-09T17:08:52.719Z,71.60
2022-10-09T17:11:20.831Z,71.60
2022-10-09T17:13:48.909Z,71.60
2022-10-09T17:16:18.630Z,71.50
2022-10-09T17:18:46.978Z,71.40
2022-10-09T17:21:15.390Z,71.30
2022-10-09T17:23:44.905Z,71.40
2022-10-09T17:26:13.641Z,71.40
2022-10-09T17:28:42.377Z,71.40
2022-10-09T17:31:11.492Z,71.30
2022-10-09T17:33:42.040Z,71.30
2022-10-09T17:36:10.137Z,71.30
2022-10-09T17:38:38.254Z,71.20
2022-10-09T17:41:08.023Z,71.20
2022-10-09T17:43:36.076Z,71.30
2022-10-09T17:46:12.955Z,71.20
2022-10-09T17:48:44.587Z,71.20
2022-10-09T17:51:15.655Z,71.10
2022-10-09T17:53:43.718Z,71.10
2022-10-09T17:56:13.157Z,71.20
2022-10-09T17:58:41.295Z,71.10
2022-10-09T18:01:09.734Z,71.10
2022-10-09T18:03:38.291Z,71.00
2022-10-09T18:06:14.219Z,71.10
2022-10-09T18:08:42.340Z,71.10
2022-10-09T18:11:13.139Z,71.00
2022-10-09T18:13:41.478Z,71.00
2022-10-09T18:16:10.596Z,71.00
2022-10-09T18:18:39.179Z,71.00
2022-10-09T18:21:08.337Z,70.90
2022-10-09T18:23:39.201Z,70.90
2022-10-09T18:26:10.590Z,70.90
2022-10-09T18:28:41.766Z,70.80
2022-10-09T18:31:12.683Z,70.80
2022-10-09T18:33:40.774Z,70.90
2022-10-09T18:36:09.864Z,70.80
2022-10-09T18:38:38.072Z,70.80
2022-10-09T18:41:09.728Z,70.70
2022-10-09T18:43:39.213Z,70.70
2022-10-09T18:46:07.285Z,70.60
2022-10-09T18:48:36.504Z,70.70
2022-10-09T18:51:04.932Z,70.60
2022-10-09T18:53:32.973Z,70.60
2022-10-09T18:56:01.202Z,70.60
2022-10-09T18:58:29.219Z,70.60
2022-10-09T19:00:58.800Z,70.60
2022-10-09T19:03:26.943Z,70.60
2022-10-09T19:05:55.005Z,70.60
2022-10-09T19:08:23.120Z,70.70
2022-10-09T19:10:51.972Z,70.60
2022-10-09T19:13:20.387Z,70.60
2022-10-09T19:15:52.601Z,70.60
2022-10-09T19:18:24.421Z,70.60
2022-10-09T19:20:52.503Z,70.50
2022-10-09T19:23:20.549Z,70.50
2022-10-09T19:25:49.420Z,70.50
2022-10-09T19:28:17.604Z,70.50
2022-10-09T19:30:45.992Z,70.40
2022-10-09T19:33:14.101Z,70.50
2022-10-09T19:35:50.560Z,70.50
2022-10-09T19:38:19.216Z,70.40
2022-10-09T19:40:47.256Z,70.40
2022-10-09T19:43:15.492Z,70.30
2022-10-09T19:45:43.655Z,70.40
2022-10-09T19:48:11.898Z,70.30
2022-10-09T19:50:41.914Z,70.40
2022-10-09T19:53:11.478Z,70.30
2022-10-09T19:55:39.679Z,70.40
2022-10-09T19:58:09.912Z,70.30
2022-10-09T20:00:42.201Z,70.40
2022-10-09T20:03:10.410Z,70.20
2022-10-09T20:05:38.505Z,70.30
2022-10-09T20:08:06.621Z,70.30
2022-10-09T20:10:37.637Z,70.30
2022-10-09T20:13:05.800Z,70.30
2022-10-09T20:15:36.956Z,70.30
2022-10-09T20:18:05.102Z,70.30
2022-10-09T20:20:33.165Z,70.20
2022-10-09T20:23:01.253Z,70.20
2022-10-09T20:25:29.375Z,70.20
2022-10-09T20:27:58.777Z,70.30
2022-10-09T20:30:26.965Z,70.10
2022-10-09T20:33:03.693Z,70.30
2022-10-09T20:35:31.801Z,70.20
2022-10-09T20:38:00.234Z,70.20
2022-10-09T20:40:28.295Z,70.10
2022-10-09T20:42:56.397Z,70.20
2022-10-09T20:45:25.872Z,70.10
2022-10-09T20:47:53.902Z,70.20
2022-10-09T20:50:22.102Z,70.20
2022-10-09T20:52:50.582Z,70.10
2022-10-09T20:55:18.973Z,70.00
2022-10-09T20:57:47.857Z,70.10
2022-10-09T21:00:17.993Z,70.00
2022-10-09T21:02:47.730Z,70.00
2022-10-09T21:05:16.080Z,70.00
2022-10-09T21:07:47.313Z,70.00
2022-10-09T21:10:15.417Z,69.90
2022-10-09T21:12:43.595Z,69.90
2022-10-09T21:15:12.164Z,69.90
2022-10-09T21:17:40.188Z,70.00
2022-10-09T21:20:10.484Z,69.90
2022-10-09T21:22:38.580Z,69.90
2022-10-09T21:25:10.855Z,69.80
2022-10-09T21:27:52.806Z,69.80
2022-10-09T21:30:24.007Z,69.80
2022-10-09T21:32:54.859Z,69.80
2022-10-09T21:35:24.641Z,69.80
2022-10-09T21:37:52.669Z,69.70
2022-10-09T21:40:20.994Z,69.80
2022-10-09T21:42:49.420Z,69.80
2022-10-09T21:45:18.137Z,69.80
2022-10-09T21:47:46.290Z,69.80
2022-10-09T21:50:14.433Z,69.70
2022-10-09T21:52:43.950Z,69.60
2022-10-09T21:55:12.105Z,69.60
2022-10-09T21:57:40.209Z,69.50
2022-10-09T22:00:09.522Z,69.40
2022-10-09T22:02:37.570Z,69.60
2022-10-09T22:05:06.399Z,69.40
2022-10-09T22:07:34.474Z,69.50
2022-10-09T22:10:03.979Z,69.50
2022-10-09T22:12:32.089Z,69.50
2022-10-09T22:15:00.222Z,69.40
2022-10-09T22:17:28.325Z,69.30
2022-10-09T22:19:56.454Z,69.40
2022-10-09T22:22:24.781Z,69.50
2022-10-09T22:24:52.973Z,69.30
2022-10-09T22:27:22.434Z,69.30
2022-10-09T22:29:53.626Z,69.20
2022-10-09T22:32:21.696Z,69.30
2022-10-09T22:34:51.437Z,69.30
2022-10-09T22:37:19.488Z,69.20
2022-10-09T22:39:47.791Z,69.20
2022-10-09T22:42:15.872Z,69.00
2022-10-09T22:44:45.335Z,69.00
2022-10-09T22:47:19.311Z,69.10
2022-10-09T22:49:47.595Z,69.10
2022-10-09T22:52:15.663Z,69.00
2022-10-09T22:54:43.895Z,69.10
2022-10-09T22:57:11.934Z,69.00
2022-10-09T22:59:40.062Z,68.90
2022-10-09T23:02:09.456Z,69.00
2022-10-09T23:04:37.643Z,68.90
2022-10-09T23:07:05.951Z,68.90
2022-10-09T23:09:34.109Z,69.00
2022-10-09T23:12:02.186Z,69.00
2022-10-09T23:14:30.348Z,68.90
2022-10-09T23:16:58.462Z,68.80
2022-10-09T23:19:27.946Z,68.80
2022-10-09T23:22:02.249Z,68.80
2022-10-09T23:24:30.340Z,68.80
2022-10-09T23:26:58.392Z,68.70
2022-10-09T23:29:26.475Z,68.80
2022-10-09T23:31:54.575Z,68.70
2022-10-09T23:34:22.618Z,68.70
2022-10-09T23:36:52.075Z,68.60
2022-10-09T23:39:20.100Z,68.70
2022-10-09T23:41:48.145Z,68.60
2022-10-09T23:44:21.264Z,68.50
2022-10-09T23:46:50.189Z,68.50
2022-10-09T23:49:18.295Z,68.50
2022-10-09T23:51:46.434Z,68.50
2022-10-09T23:54:15.945Z,68.50
2022-10-09T23:56:44.047Z,68.50
2022-10-09T23:59:12.449Z,68.50
